Time;durP1;ratioP1;P1;durP2;ratioP2;P2;SDS_P1;SDS_P2;PMS_P1;PMS_P2;Temp;Humidity;BMP_temperature;BMP_pressure;BME280_temperature;BME280_humidity;BME280_pressure;Samples;Min_cycle;Max_cycle;Signal;HPM_P1;HPM_P2
2022/02/21 00:01:35;;;;;;;3.70;1.30;;;;;;;;;;5091667;28;20449;-75
2022/02/21 00:04:04;;;;;;;2.20;0.93;;;;;;;;;;5092348;28;20444;-76
2022/02/21 00:06:31;;;;;;;1.17;0.73;;;;;;;;;;5089448;28;20980;-75
2022/02/21 00:08:58;;;;;;;2.83;1.00;;;;;;;;;;5092468;28;20444;-75
2022/02/21 00:11:25;;;;;;;2.07;1.50;;;;;;;;;;5090952;28;20476;-74
2022/02/21 00:13:52;;;;;;;1.77;0.70;;;;;;;;;;5092515;28;20455;-75
2022/02/21 00:16:19;;;;;;;3.10;1.00;;;10.20;1.00;;;;;;5091015;28;20447;-75
2022/02/21 00:18:46;;;;;;;1.90;0.80;;;10.80;1.00;;;;;;5092336;28;21031;-75
2022/02/21 00:21:14;;;;;;;1.10;1.00;;;10.80;1.00;;;;;;5091660;28;20485;-75
2022/02/21 00:23:41;;;;;;;1.83;0.90;;;10.80;1.00;;;;;;5092061;28;20529;-73
2022/02/21 00:26:08;;;;;;;2.70;1.00;;;10.80;1.00;;;;;;5091649;28;20476;-74
2022/02/21 00:28:35;;;;;;;2.40;0.80;;;10.90;1.00;;;;;;5085083;28;21017;-74
2022/02/21 00:31:02;;;;;;;2.27;0.80;;;10.90;1.00;;;;;;5091869;28;20527;-74
2022/02/21 00:33:28;;;;;;;1.37;0.80;;;10.90;1.00;;;;;;5091833;28;20441;-74
2022/02/21 00:35:55;;;;;;;1.00;0.60;;;10.90;1.00;;;;;;5091153;28;20455;-74
2022/02/21 00:38:23;;;;;;;1.90;1.07;;;10.90;1.00;;;;;;5083586;28;20882;-75
2022/02/21 00:40:50;;;;;;;1.80;0.90;;;10.80;1.00;;;;;;5091707;28;20472;-73
2022/02/21 00:43:17;;;;;;;1.63;0.67;;;10.80;1.00;;;;;;5091601;28;20451;-71
2022/02/21 00:45:44;;;;;;;2.27;0.80;;;10.80;1.00;;;;;;5091190;28;20452;-73
2022/02/21 00:48:11;;;;;;;1.60;0.70;;;10.90;1.00;;;;;;5091135;28;20955;-72
2022/02/21 00:50:38;;;;;;;1.50;1.00;;;10.80;1.00;;;;;;5090933;28;20450;-73
2022/02/21 00:53:05;;;;;;;4.47;1.40;;;10.70;1.00;;;;;;5090291;28;20483;-72
2022/02/21 00:55:34;;;;;;;1.53;0.70;;;10.60;1.00;;;;;;5090397;28;20537;-73
2022/02/21 00:58:02;;;;;;;1.50;1.00;;;10.50;99.90;;;;;;5091073;28;20447;-73
2022/02/21 01:00:29;;;;;;;2.80;1.07;;;10.40;99.90;;;;;;5090211;28;20452;-72
2022/02/21 01:02:56;;;;;;;3.03;1.10;;;10.40;99.90;;;;;;5090978;28;20451;-72
2022/02/21 01:05:23;;;;;;;5.60;1.30;;;10.40;99.90;;;;;;5090766;28;20470;-72
2022/02/21 01:07:50;;;;;;;2.63;1.10;;;10.30;1.00;;;;;;5090959;28;20478;-71
2022/02/21 01:10:17;;;;;;;2.67;0.90;;;10.30;1.00;;;;;;5091344;28;20459;-72
2022/02/21 01:12:46;;;;;;;1.90;0.90;;;10.30;1.00;;;;;;5091199;28;20527;-72
2022/02/21 01:15:14;;;;;;;1.23;0.80;;;10.40;99.90;;;;;;5090972;28;20454;-72
2022/02/21 01:17:42;;;;;;;2.73;0.87;;;10.40;1.00;;;;;;5091188;28;20494;-73
2022/02/21 01:20:10;;;;;;;1.70;1.10;;;10.30;1.00;;;;;;5091649;28;20872;-72
2022/02/21 01:22:37;;;;;;;6.70;1.27;;;10.30;1.00;;;;;;5091225;28;20755;-73
2022/02/21 01:25:06;;;;;;;2.20;0.93;;;10.30;1.00;;;;;;5092000;28;20453;-73
2022/02/21 01:27:33;;;;;;;3.07;1.70;;;10.30;1.00;;;;;;5090879;28;20476;-72
2022/02/21 01:30:02;;;;;;;3.70;0.90;;;10.30;1.00;;;;;;5091402;28;20448;-72
2022/02/21 01:32:29;;;;;;;1.57;0.60;;;10.20;1.00;;;;;;5090269;28;20859;-71
2022/02/21 01:34:55;;;;;;;1.97;0.77;;;10.30;1.00;;;;;;5091028;28;20450;-72
2022/02/21 01:37:22;;;;;;;3.40;1.50;;;10.30;1.00;;;;;;5089851;28;20944;-71
2022/02/21 01:39:49;;;;;;;2.20;0.97;;;;;;;;;;5091681;28;20448;-72
2022/02/21 01:42:17;;;;;;;1.30;0.80;;;;;;;;;;5090135;28;20532;-71
2022/02/21 01:44:44;;;;;;;1.80;0.87;;;;;;;;;;5085127;28;20532;-72
2022/02/21 01:47:14;;;;;;;2.70;0.90;;;;;;;;;;5077025;28;20487;-72
2022/02/21 01:49:41;;;;;;;3.23;0.90;;;;;;;;;;5077080;28;20942;-72
2022/02/21 01:52:09;;;;;;;1.90;0.80;;;;;;;;;;5090169;28;20485;-72
2022/02/21 01:54:36;;;;;;;1.13;0.70;;;;;;;;;;5090013;28;21117;-72
2022/02/21 01:57:04;;;;;;;0.80;0.70;;;;;;;;;;5090130;28;20873;-72
2022/02/21 01:59:33;;;;;;;1.67;0.70;;;;;;;;;;5089400;28;20447;-72
2022/02/21 02:02:00;;;;;;;2.20;1.00;;;;;;;;;;5090008;28;20940;-71
2022/02/21 02:04:28;;;;;;;4.67;1.40;;;;;;;;;;5089921;28;20531;-72
2022/02/21 02:06:56;;;;;;;3.87;0.80;;;;;;;;;;5081080;28;20556;-72
2022/02/21 02:09:23;;;;;;;2.40;0.60;;;;;;;;;;5086888;28;20452;-71
2022/02/21 02:11:51;;;;;;;1.50;1.00;;;;;;;;;;5091102;28;20451;-73
2022/02/21 02:14:28;;;;;;;2.33;1.00;;;;;;;;;;5090059;28;20441;-72
2022/02/21 02:16:55;;;;;;;2.60;0.90;;;;;;;;;;5090600;28;20540;-73
2022/02/21 02:19:22;;;;;;;1.73;0.57;;;;;;;;;;5089238;28;20453;-73
2022/02/21 02:21:55;;;;;;;1.17;0.80;;;;;;;;;;5090041;28;20479;-73
2022/02/21 02:24:24;;;;;;;0.93;0.70;;;;;;;;;;5078082;28;20507;-73
2022/02/21 02:26:53;;;;;;;5.83;1.10;;;;;;;;;;5082213;28;20480;-73
2022/02/21 02:29:21;;;;;;;1.47;0.70;;;;;;;;;;5089882;28;20445;-73
2022/02/21 02:31:48;;;;;;;3.40;0.97;;;;;;;;;;5094255;28;20490;-73
2022/02/21 02:34:15;;;;;;;4.30;0.87;;;10.30;1.00;;;;;;5093312;28;20452;-72
2022/02/21 02:36:44;;;;;;;5.63;1.10;;;10.30;99.90;;;;;;5093000;28;21031;-73
2022/02/21 02:39:12;;;;;;;2.47;0.90;;;10.30;99.90;;;;;;5094254;28;20850;-75
2022/02/21 02:41:40;;;;;;;1.10;0.60;;;10.20;26.40;;;;;;5093967;28;20459;-74
2022/02/21 02:44:07;;;;;;;1.40;0.77;;;10.10;1.00;;;;;;5093702;28;20488;-74
2022/02/21 02:46:34;;;;;;;5.53;0.77;;;9.90;22.70;;;;;;5083279;28;21069;-74
2022/02/21 02:49:01;;;;;;;2.10;0.70;;;9.80;99.90;;;;;;5093798;28;20523;-74
2022/02/21 02:51:28;;;;;;;1.13;0.90;;;9.70;99.90;;;;;;5091921;28;20535;-73
2022/02/21 02:53:55;;;;;;;1.90;0.70;;;9.50;99.90;;;;;;5093909;28;20480;-74
2022/02/21 02:56:22;;;;;;;2.20;0.97;;;9.50;1.00;;;;;;5092387;28;20452;-73
2022/02/21 02:58:50;;;;;;;2.03;0.70;;;9.60;1.00;;;;;;5093695;28;20799;-74
2022/02/21 03:01:17;;;;;;;1.47;0.60;;;9.60;99.90;;;;;;5090504;28;20532;-72
2022/02/21 03:03:44;;;;;;;2.37;0.87;;;9.60;99.90;;;;;;5090767;28;20525;-74
2022/02/21 03:06:11;;;;;;;2.37;1.30;;;9.70;1.00;;;;;;5092133;28;20449;-74
2022/02/21 03:08:38;;;;;;;0.80;0.60;;;9.80;99.90;;;;;;5092820;28;20454;-74
2022/02/21 03:11:05;;;;;;;1.43;0.73;;;9.80;1.00;;;;;;5093862;28;20547;-72
2022/02/21 03:13:32;;;;;;;1.00;0.50;;;;;;;;;;5092886;28;20539;-74
2022/02/21 03:16:00;;;;;;;3.40;1.00;;;;;;;;;;5093179;28;20535;-72
2022/02/21 03:18:27;;;;;;;2.30;0.83;;;;;;;;;;5092938;28;20455;-72
2022/02/21 03:20:54;;;;;;;3.50;0.80;;;;;;;;;;5092715;28;20978;-73
2022/02/21 03:23:23;;;;;;;0.73;0.70;;;;;;;;;;5092581;28;20444;-73
2022/02/21 03:25:50;;;;;;;4.63;0.70;;;;;;;;;;5092526;28;20526;-73
2022/02/21 03:28:17;;;;;;;4.27;1.10;;;;;;;;;;5093184;28;20481;-71
2022/02/21 03:30:44;;;;;;;1.30;0.60;;;;;;;;;;5093123;28;20475;-72
2022/02/21 03:33:13;;;;;;;2.30;0.80;;;;;;;;;;5092606;28;20449;-73
2022/02/21 03:35:40;;;;;;;1.03;0.60;;;;;;;;;;5092125;28;20527;-73
2022/02/21 03:38:08;;;;;;;1.83;0.60;;;;;;;;;;5092871;28;20453;-73
2022/02/21 03:40:35;;;;;;;1.43;0.63;;;;;;;;;;5090975;28;20613;-74
2022/02/21 03:43:02;;;;;;;1.87;0.73;;;9.90;1.00;;;;;;5092449;28;20448;-75
2022/02/21 03:45:29;;;;;;;1.37;0.60;;;;;;;;;;5091215;28;20455;-76
2022/02/21 03:47:56;;;;;;;1.53;0.50;;;;;;;;;;5092646;28;20484;-71
2022/02/21 03:50:25;;;;;;;0.83;0.53;;;;;;;;;;5089444;28;20445;-72
2022/02/21 03:52:52;;;;;;;2.00;0.60;;;;;;;;;;5085784;28;20472;-72
2022/02/21 03:55:19;;;;;;;0.60;0.50;;;;;;;;;;5091342;28;20459;-71
2022/02/21 03:57:47;;;;;;;0.93;0.70;;;;;;;;;;5092507;28;20482;-71
2022/02/21 04:00:16;;;;;;;1.13;0.50;;;;;;;;;;5092691;28;20449;-71
2022/02/21 04:02:43;;;;;;;1.17;0.70;;;;;;;;;;5091916;28;20444;-71
2022/02/21 04:05:14;;;;;;;0.70;0.50;;;;;;;;;;5092022;28;20445;-71
2022/02/21 04:07:44;;;;;;;0.83;0.60;;;;;;;;;;5091801;28;20522;-71
2022/02/21 04:10:12;;;;;;;1.00;0.60;;;;;;;;;;5091776;28;20470;-72
2022/02/21 04:12:39;;;;;;;1.30;0.80;;;;;;;;;;5091042;28;20535;-72
2022/02/21 04:15:07;;;;;;;1.30;0.70;;;;;;;;;;5091762;28;20456;-71
2022/02/21 04:17:41;;;;;;;1.43;0.77;;;;;;;;;;5091667;28;20459;-71
2022/02/21 04:20:09;;;;;;;1.07;0.60;;;;;;;;;;5091723;28;20480;-71
2022/02/21 04:22:36;;;;;;;2.07;0.93;;;;;;;;;;5090543;28;20560;-72
2022/02/21 04:25:05;;;;;;;3.00;0.70;;;;;;;;;;5091768;28;20448;-72
2022/02/21 04:27:39;;;;;;;5.33;0.70;;;;;;;;;;5090862;28;20503;-73
2022/02/21 04:30:07;;;;;;;2.33;1.07;;;;;;;;;;5087333;28;20454;-72
2022/02/21 04:32:36;;;;;;;1.70;0.77;;;;;;;;;;5080684;28;20456;-71
2022/02/21 04:35:04;;;;;;;2.20;0.70;;;;;;;;;;5091257;28;20845;-71
2022/02/21 04:37:31;;;;;;;2.63;0.87;;;;;;;;;;5090346;28;20538;-71
2022/02/21 04:39:58;;;;;;;1.87;1.00;;;;;;;;;;5092214;28;20455;-71
2022/02/21 04:42:26;;;;;;;1.57;1.00;;;;;;;;;;5091453;28;20499;-71
2022/02/21 04:44:53;;;;;;;1.40;0.87;;;;;;;;;;5091400;28;20448;-71
2022/02/21 04:47:21;;;;;;;6.03;1.17;;;;;;;;;;5090187;28;20479;-71
2022/02/21 04:49:48;;;;;;;2.40;1.50;;;;;;;;;;5091385;28;20536;-71
2022/02/21 04:52:15;;;;;;;2.87;1.10;;;;;;;;;;5090695;28;20487;-71
2022/02/21 04:54:42;;;;;;;6.47;0.83;;;;;;;;;;5089339;28;20443;-72
2022/02/21 04:57:09;;;;;;;2.40;0.67;;;;;;;;;;5081733;28;20445;-72
2022/02/21 04:59:38;;;;;;;4.63;1.10;;;;;;;;;;5090524;28;20440;-72
2022/02/21 05:02:05;;;;;;;1.73;1.17;;;;;;;;;;5091054;28;20878;-72
2022/02/21 05:04:32;;;;;;;3.80;0.80;;;;;;;;;;5090046;28;21053;-71
2022/02/21 05:06:59;;;;;;;2.63;1.13;;;;;;;;;;5090912;28;20444;-71
2022/02/21 05:09:27;;;;;;;3.17;1.13;;;;;;;;;;5090498;28;20546;-71
2022/02/21 05:11:54;;;;;;;3.73;1.13;;;;;;;;;;5091448;28;20982;-72
2022/02/21 05:14:21;;;;;;;5.27;1.43;;;;;;;;;;5090161;28;20450;-71
2022/02/21 05:16:49;;;;;;;7.43;1.13;;;;;;;;;;5087979;28;20452;-67
2022/02/21 05:19:17;;;;;;;5.13;1.30;;;;;;;;;;5078312;28;20895;-71
2022/02/21 05:21:44;;;;;;;1.80;0.80;;;;;;;;;;5091469;28;20501;-70
2022/02/21 05:24:11;;;;;;;1.83;1.30;;;;;;;;;;5081904;28;20454;-70
2022/02/21 05:26:38;;;;;;;5.10;1.27;;;;;;;;;;5090029;28;20472;-70
2022/02/21 05:29:05;;;;;;;5.07;1.10;;;;;;;;;;5091401;28;20576;-70
2022/02/21 05:31:32;;;;;;;5.03;1.23;;;;;;;;;;5090689;28;20448;-69
2022/02/21 05:34:01;;;;;;;5.67;1.20;;;;;;;;;;5091161;28;20455;-73
2022/02/21 05:36:28;;;;;;;5.93;1.23;;;;;;;;;;5086327;28;20480;-69
2022/02/21 05:38:55;;;;;;;6.40;1.67;;;;;;;;;;5090462;28;20540;-73
2022/02/21 05:41:23;;;;;;;4.87;1.77;;;;;;;;;;5090355;28;20535;-73
2022/02/21 05:43:50;;;;;;;5.83;1.70;;;;;;;;;;5090821;28;20532;-71
2022/02/21 05:46:17;;;;;;;4.40;1.43;;;;;;;;;;5090307;28;20445;-71
2022/02/21 05:48:44;;;;;;;5.20;2.70;;;;;;;;;;5083467;28;20486;-71
2022/02/21 05:51:13;;;;;;;4.97;1.20;;;;;;;;;;5090729;28;20845;-74
2022/02/21 05:53:44;;;;;;;7.07;2.10;;;;;;;;;;5086140;28;20478;-74
2022/02/21 05:56:11;;;;;;;8.73;1.87;;;;;;;;;;5086754;28;20452;-73
2022/02/21 05:58:38;;;;;;;5.13;1.73;;;;;;;;;;5090322;28;20452;-73
2022/02/21 06:01:05;;;;;;;4.93;1.60;;;;;;;;;;5091063;28;20546;-71
2022/02/21 06:03:32;;;;;;;7.17;1.30;;;;;;;;;;5090779;28;20813;-74
2022/02/21 06:05:59;;;;;;;11.50;1.90;;;;;;;;;;5094584;28;20539;-74
2022/02/21 06:08:29;;;;;;;4.13;1.70;;;;;;;;;;5094467;28;20848;-73
2022/02/21 06:10:57;;;;;;;6.20;2.00;;;;;;;;;;5095051;28;20448;-73
2022/02/21 06:13:24;;;;;;;5.40;1.67;;;;;;;;;;5094012;28;20457;-75
2022/02/21 06:15:51;;;;;;;7.07;1.50;;;;;;;;;;5094573;28;20527;-74
2022/02/21 06:18:18;;;;;;;4.43;1.13;;;;;;;;;;5094097;28;20539;-73
2022/02/21 06:20:46;;;;;;;6.80;1.80;;;;;;;;;;5094766;28;20486;-75
2022/02/21 06:23:13;;;;;;;10.67;2.00;;;;;;;;;;5094633;28;20769;-75
2022/02/21 06:25:42;;;;;;;9.20;1.37;;;;;;;;;;5094724;28;20452;-75
2022/02/21 06:28:10;;;;;;;8.67;2.17;;;;;;;;;;5094589;28;20479;-75
2022/02/21 06:30:37;;;;;;;5.77;1.30;;;;;;;;;;5093688;28;20563;-75
2022/02/21 06:33:04;;;;;;;2.67;1.20;;;;;;;;;;5093923;28;20452;-75
2022/02/21 06:35:31;;;;;;;6.60;1.37;;;;;;;;;;5093611;28;20476;-75
2022/02/21 06:37:59;;;;;;;2.80;1.33;;;;;;;;;;5094204;28;20958;-74
2022/02/21 06:40:27;;;;;;;5.50;1.37;;;;;;;;;;5093680;28;20450;-75
2022/02/21 06:42:55;;;;;;;8.40;1.80;;;;;;;;;;5093940;28;21049;-75
2022/02/21 06:45:23;;;;;;;5.23;1.30;;;;;;;;;;5093641;28;20445;-75
2022/02/21 06:47:50;;;;;;;8.17;1.73;;;;;;;;;;5094045;28;20575;-74
2022/02/21 06:50:17;;;;;;;7.63;1.93;;;;;;;;;;5093434;28;20479;-74
2022/02/21 06:52:45;;;;;;;3.60;1.40;;;;;;;;;;5094355;28;20562;-74
2022/02/21 06:55:13;;;;;;;9.60;1.50;;;;;;;;;;5094327;28;20808;-75
2022/02/21 06:57:41;;;;;;;8.30;1.43;;;;;;;;;;5094801;28;20445;-74
2022/02/21 07:00:10;;;;;;;5.70;1.83;;;;;;;;;;5093741;28;20991;-75
2022/02/21 07:02:38;;;;;;;7.10;1.40;;;;;;;;;;5093550;28;20444;-75
2022/02/21 07:05:06;;;;;;;1.77;1.30;;;;;;;;;;5093978;28;20784;-75
2022/02/21 07:07:33;;;;;;;6.00;1.40;;;;;;;;;;5093350;28;20445;-75
2022/02/21 07:10:00;;;;;;;3.93;1.40;;;;;;;;;;5094560;28;20449;-75
2022/02/21 07:12:27;;;;;;;5.37;2.03;;;;;;;;;;5093400;28;20808;-75
2022/02/21 07:14:54;;;;;;;4.50;1.70;;;;;;;;;;5093976;28;20447;-75
2022/02/21 07:17:23;;;;;;;3.50;1.80;;;;;;;;;;5093473;28;20932;-74
2022/02/21 07:19:51;;;;;;;7.87;2.10;;;;;;;;;;5094766;28;20452;-75
2022/02/21 07:22:19;;;;;;;2.40;1.20;;;;;;;;;;5093749;28;20513;-75
2022/02/21 07:24:46;;;;;;;3.80;2.00;;;;;;;;;;5093725;28;20498;-75
2022/02/21 07:27:13;;;;;;;6.23;1.93;;;;;;;;;;5094208;28;20476;-75
2022/02/21 07:29:40;;;;;;;6.70;2.00;;;;;;;;;;5093449;28;20491;-75
2022/02/21 07:32:08;;;;;;;9.63;1.73;;;;;;;;;;5094114;28;20777;-75
2022/02/21 07:34:36;;;;;;;5.90;1.50;;;;;;;;;;5092970;28;20848;-75
2022/02/21 07:37:04;;;;;;;3.13;1.80;;;;;;;;;;5093451;28;20531;-75
2022/02/21 07:39:33;;;;;;;6.40;1.50;;;;;;;;;;5092792;28;20536;-75
2022/02/21 07:42:00;;;;;;;3.70;1.30;;;;;;;;;;5093176;28;20547;-75
2022/02/21 07:44:27;;;;;;;7.50;2.40;;;;;;;;;;5091837;28;20444;-75
2022/02/21 07:46:54;;;;;;;4.37;2.40;;;;;;;;;;5093142;28;20440;-76
2022/02/21 07:49:22;;;;;;;14.47;2.10;;;;;;;;;;5094768;28;20489;-75
2022/02/21 07:51:50;;;;;;;7.10;2.27;;;;;;;;;;5092884;28;20954;-76
2022/02/21 07:54:17;;;;;;;5.50;1.63;;;;;;;;;;5092351;28;20804;-73
2022/02/21 07:56:45;;;;;;;11.60;2.83;;;;;;;;;;5093268;28;20444;-77
2022/02/21 07:59:12;;;;;;;6.53;1.93;;;;;;;;;;5093160;28;20449;-75
2022/02/21 08:01:39;;;;;;;9.70;2.23;;;;;;;;;;5092069;28;20932;-77
2022/02/21 08:04:06;;;;;;;8.70;1.73;;;;;;;;;;5093188;28;20445;-76
2022/02/21 08:06:33;;;;;;;5.20;1.87;;;;;;;;;;5091833;28;20932;-77
2022/02/21 08:09:02;;;;;;;9.43;1.83;;;;;;;;;;5093452;28;20491;-77
2022/02/21 08:11:29;;;;;;;7.73;2.10;;;;;;;;;;5093101;28;20487;-76
2022/02/21 08:13:57;;;;;;;5.27;1.80;;;;;;;;;;5099902;28;20444;-78
2022/02/21 08:16:24;;;;;;;7.53;2.00;;;;;;;;;;5095178;28;20451;-79
2022/02/21 08:18:51;;;;;;;6.80;1.63;;;;;;;;;;5097882;28;20474;-77
2022/02/21 08:21:18;;;;;;;5.90;1.43;;;;;;;;;;5101400;28;20472;-75
2022/02/21 08:23:46;;;;;;;4.00;1.40;;;;;;;;;;5111745;28;20985;-76
2022/02/21 08:26:14;;;;;;;6.30;1.60;;;;;;;;;;5104850;28;20484;-79
2022/02/21 08:28:42;;;;;;;6.83;1.37;;;;;;;;;;5096934;28;20504;-77
2022/02/21 08:31:09;;;;;;;3.97;1.63;;;;;;;;;;5092449;28;20935;-77
2022/02/21 08:33:36;;;;;;;6.53;1.77;;;;;;;;;;5091714;28;20449;-78
2022/02/21 08:36:03;;;;;;;4.67;1.40;;;;;;;;;;5092673;28;20536;-77
2022/02/21 08:38:30;;;;;;;7.03;1.50;;;;;;;;;;5091840;28;20527;-77
2022/02/21 08:40:58;;;;;;;6.07;2.57;;;;;;;;;;5093856;28;20527;-77
2022/02/21 08:43:28;;;;;;;10.43;1.50;;;;;;;;;;5091378;28;20811;-77
2022/02/21 08:45:55;;;;;;;10.07;3.30;;;;;;;;;;5092523;28;20454;-78
2022/02/21 08:48:23;;;;;;;10.47;2.80;;;;;;;;;;5091245;28;20515;-77
2022/02/21 08:50:51;;;;;;;6.77;1.77;;;;;;;;;;5091961;28;20521;-76
2022/02/21 08:53:18;;;;;;;8.50;2.50;;;;;;;;;;5091471;28;20563;-73
2022/02/21 08:55:45;;;;;;;9.30;1.30;;;;;;;;;;5092087;28;20858;-76
2022/02/21 08:58:13;;;;;;;3.10;1.27;;;;;;;;;;5091913;28;20445;-76
2022/02/21 09:00:43;;;;;;;7.60;2.30;;;;;;;;;;5090889;28;20457;-77
2022/02/21 09:03:10;;;;;;;7.60;3.20;;;;;;;;;;5091508;28;20445;-76
2022/02/21 09:05:38;;;;;;;7.40;2.57;;;;;;;;;;5092357;28;20472;-77
2022/02/21 09:08:05;;;;;;;8.60;1.60;;;;;;;;;;5091335;28;21247;-77
2022/02/21 09:10:32;;;;;;;10.10;2.40;;;;;;;;;;5091367;28;20848;-77
2022/02/21 09:13:00;;;;;;;8.73;2.27;;;;;;;;;;5091590;28;20449;-77
2022/02/21 09:15:27;;;;;;;11.23;1.60;;;;;;;;;;5091873;28;20484;-76
2022/02/21 09:17:57;;;;;;;8.77;1.80;;;;;;;;;;5091179;28;20531;-76
2022/02/21 09:20:24;;;;;;;7.70;1.43;;;;;;;;;;5091625;28;20452;-75
2022/02/21 09:22:51;;;;;;;7.90;1.67;;;;;;;;;;5090776;28;20943;-76
2022/02/21 09:25:18;;;;;;;6.27;2.10;;;;;;;;;;5091259;28;20543;-75
2022/02/21 09:27:45;;;;;;;6.53;1.70;;;;;;;;;;5091719;28;20470;-75
2022/02/21 09:30:13;;;;;;;9.90;2.90;;;;;;;;;;5091192;28;20487;-77
2022/02/21 09:32:40;;;;;;;7.53;2.03;;;;;;;;;;5090302;28;20452;-76
2022/02/21 09:35:10;;;;;;;6.50;2.23;;;;;;;;;;5091239;28;20453;-76
2022/02/21 09:37:38;;;;;;;4.97;2.40;;;;;;;;;;5089634;28;20440;-75
2022/02/21 09:40:06;;;;;;;8.50;1.60;;;;;;;;;;5091170;28;20867;-76
2022/02/21 09:42:33;;;;;;;9.20;1.70;;;;;;;;;;5090093;28;20456;-74
2022/02/21 09:45:00;;;;;;;10.60;1.50;;;;;;;;;;5091286;28;20868;-75
2022/02/21 09:47:29;;;;;;;7.03;1.53;;;;;;;;;;5090902;28;20798;-75
2022/02/21 09:49:57;;;;;;;4.57;1.63;;;;;;;;;;5090980;28;20566;-75
2022/02/21 09:52:26;;;;;;;5.30;1.43;;;;;;;;;;5090352;28;20473;-76
2022/02/21 09:54:54;;;;;;;3.80;1.20;;;;;;;;;;5090544;28;20448;-75
2022/02/21 09:57:23;;;;;;;3.27;1.50;;;;;;;;;;5091838;28;20483;-74
2022/02/21 09:59:51;;;;;;;5.23;2.07;;;;;;;;;;5093128;28;20444;-75
2022/02/21 10:02:21;;;;;;;7.43;1.63;;;;;;;;;;5090251;28;20476;-73
2022/02/21 10:04:48;;;;;;;6.67;1.80;;;;;;;;;;5090649;28;20437;-75
2022/02/21 10:07:28;;;;;;;6.33;1.73;;;;;;;;;;5091012;28;20536;-73
2022/02/21 10:10:00;;;;;;;7.57;1.90;;;;;;;;;;5077716;28;20472;-76
2022/02/21 10:12:28;;;;;;;3.77;1.50;;;;;;;;;;5090204;28;20451;-75
2022/02/21 10:14:55;;;;;;;16.43;2.33;;;;;;;;;;5091442;28;20453;-76
2022/02/21 10:17:25;;;;;;;3.97;2.60;;;;;;;;;;5090449;28;20893;-75
2022/02/21 10:20:03;;;;;;;5.23;1.70;;;;;;;;;;5091061;28;20452;-75
2022/02/21 10:22:32;;;;;;;6.57;1.90;;;;;;;;;;5089525;28;20488;-75
2022/02/21 10:25:01;;;;;;;3.77;1.30;;;;;;;;;;5090942;28;20506;-75
2022/02/21 10:27:29;;;;;;;11.17;3.00;;;;;;;;;;5090374;28;20637;-75
2022/02/21 10:29:59;;;;;;;6.53;1.83;;;;;;;;;;5091221;28;20516;-75
2022/02/21 10:32:28;;;;;;;5.23;1.47;;;;;;;;;;5091257;28;20460;-76
2022/02/21 10:34:56;;;;;;;6.73;2.23;;;;;;;;;;5084132;28;20822;-75
2022/02/21 10:37:23;;;;;;;3.33;1.57;;;;;;;;;;5089975;28;20812;-76
2022/02/21 10:39:51;;;;;;;1.57;0.83;;;;;;;;;;5090910;28;20456;-75
2022/02/21 10:42:27;;;;;;;2.70;1.17;;;;;;;;;;5089779;28;20502;-74
2022/02/21 10:44:54;;;;;;;15.00;3.00;;;9.40;99.90;;;;;;5090211;28;20440;-75
2022/02/21 10:47:22;;;;;;;8.03;2.07;;;7.80;99.90;;;;;;5089964;28;20540;-75
2022/02/21 10:49:51;;;;;;;7.93;1.60;;;7.90;99.90;;;;;;5092106;28;21010;-75
2022/02/21 10:52:20;;;;;;;4.00;0.83;;;7.90;99.90;;;;;;5093598;28;20571;-75
2022/02/21 10:54:47;;;;;;;4.60;1.50;;;8.00;99.90;;;;;;5093387;28;20476;-75
2022/02/21 10:57:18;;;;;;;2.30;1.23;;;8.00;99.90;;;;;;5094447;28;20502;-75
2022/02/21 10:59:47;;;;;;;3.63;1.10;;;7.90;99.90;;;;;;5094538;28;20509;-75
2022/02/21 11:02:16;;;;;;;5.93;1.50;;;;;;;;;;5094337;28;20456;-75
2022/02/21 11:04:44;;;;;;;6.60;1.90;;;;;;;;;;5093354;28;20527;-76
2022/02/21 11:07:12;;;;;;;4.40;1.60;;;;;;;;;;5094275;28;20799;-75
2022/02/21 11:09:39;;;;;;;3.73;1.60;;;;;;;;;;5093272;28;20584;-75
2022/02/21 11:12:08;;;;;;;3.33;1.10;;;8.20;99.90;;;;;;5094388;28;20444;-75
2022/02/21 11:14:38;;;;;;;3.60;1.00;;;8.20;99.90;;;;;;5093167;28;20823;-75
2022/02/21 11:17:09;;;;;;;3.40;1.27;;;8.30;99.90;;;;;;5093986;28;21233;-75
2022/02/21 11:19:36;;;;;;;5.10;1.17;;;8.50;99.90;;;;;;5094068;28;20553;-75
2022/02/21 11:22:03;;;;;;;2.20;0.90;;;8.70;99.90;;;;;;5094413;28;20461;-75
2022/02/21 11:24:33;;;;;;;4.00;1.30;;;8.50;99.90;;;;;;5093072;28;20472;-75
2022/02/21 11:27:13;;;;;;;5.10;1.57;;;8.50;99.90;;;;;;5093798;28;20527;-74
2022/02/21 11:29:45;;;;;;;4.43;1.23;;;8.40;99.90;;;;;;5081935;28;21068;-75
2022/02/21 11:32:20;;;;;;;2.10;1.33;;;8.10;99.90;;;;;;5093542;28;20451;-75
2022/02/21 11:34:48;;;;;;;11.23;1.47;;;8.10;99.90;;;;;;5093567;28;20520;-74
2022/02/21 11:37:25;;;;;;;7.03;1.10;;;8.00;99.90;;;;;;5093746;28;20540;-74
2022/02/21 11:39:59;;;;;;;4.20;1.20;;;7.80;99.90;;;;;;5093759;28;20862;-74
2022/02/21 11:42:30;;;;;;;5.67;1.30;;;7.60;99.90;;;;;;5079865;28;20452;-74
2022/02/21 11:44:59;;;;;;;3.20;1.30;;;;;;;;;;5101661;28;20440;-76
2022/02/21 11:47:38;;;;;;;5.93;1.33;;;;;;;;;;5099768;28;20937;-75
2022/02/21 11:50:08;;;;;;;2.60;0.93;;;;;;;;;;5096686;28;20877;-74
2022/02/21 11:52:37;;;;;;;2.73;1.40;;;;;;;;;;5092571;28;20977;-74
2022/02/21 11:55:05;;;;;;;5.30;1.50;;;;;;;;;;5093076;28;20455;-74
2022/02/21 11:57:38;;;;;;;4.90;1.60;;;;;;;;;;5092548;28;20959;-75
2022/02/21 12:00:24;;;;;;;4.63;1.50;;;;;;;;;;5093232;28;20805;-75
2022/02/21 12:03:14;;;;;;;5.53;1.53;;;;;;;;;;5092453;28;20476;-74
2022/02/21 12:05:42;;;;;;;4.23;1.00;;;;;;;;;;5092899;28;20429;-75
2022/02/21 12:08:22;;;;;;;3.10;1.13;;;;;;;;;;5093307;28;20808;-75
2022/02/21 12:11:09;;;;;;;9.97;1.23;;;;;;;;;;5093904;28;20479;-75
2022/02/21 12:13:38;;;;;;;2.40;1.43;;;;;;;;;;5092326;28;20440;-76
2022/02/21 12:16:05;;;;;;;3.90;1.20;;;;;;;;;;5093303;28;20494;-75
2022/02/21 12:18:44;;;;;;;3.50;1.40;;;;;;;;;;5092964;28;20440;-75
2022/02/21 12:21:14;;;;;;;0.97;0.70;;;;;;;;;;5092740;28;20486;-75
2022/02/21 12:23:57;;;;;;;2.27;1.50;;;;;;;;;;5092029;28;20448;-74
2022/02/21 12:26:24;;;;;;;4.00;1.00;;;;;;;;;;5092465;28;20514;-75
2022/02/21 12:29:15;;;;;;;4.00;1.37;;;;;;;;;;5093416;28;20440;-76
2022/02/21 12:31:43;;;;;;;1.87;0.93;;;;;;;;;;5092608;28;20452;-75
2022/02/21 12:34:12;;;;;;;2.23;0.93;;;;;;;;;;5092810;28;20551;-76
2022/02/21 12:36:40;;;;;;;6.00;1.50;;;;;;;;;;5092160;28;20444;-73
2022/02/21 12:39:07;;;;;;;2.70;1.10;;;;;;;;;;5092571;28;20444;-74
2022/02/21 12:41:36;;;;;;;3.47;1.30;;;;;;;;;;5091737;28;20463;-75
2022/02/21 12:44:04;;;;;;;4.10;1.67;;;;;;;;;;5092304;28;20445;-73
2022/02/21 12:46:32;;;;;;;3.27;1.20;;;;;;;;;;5091391;28;20471;-74
2022/02/21 12:49:00;;;;;;;3.50;1.57;;;;;;;;;;5092003;28;20444;-74
2022/02/21 12:51:30;;;;;;;2.17;1.07;;;;;;;;;;5091192;28;20942;-73
2022/02/21 12:54:02;;;;;;;3.23;1.53;;;;;;;;;;5092437;28;20484;-75
2022/02/21 12:56:31;;;;;;;6.97;1.40;;;;;;;;;;5091259;28;20441;-74
2022/02/21 12:58:58;;;;;;;3.17;1.10;;;;;;;;;;5091573;28;20447;-75
2022/02/21 13:01:26;;;;;;;5.20;2.30;;;;;;;;;;5091330;28;20443;-75
2022/02/21 13:03:57;;;;;;;5.07;1.47;;;;;;;;;;5091227;28;20479;-74
2022/02/21 13:06:25;;;;;;;2.80;1.00;;;;;;;;;;5090787;28;20455;-75
2022/02/21 13:08:53;;;;;;;3.57;1.30;;;;;;;;;;5091341;28;20447;-75
2022/02/21 13:11:28;;;;;;;2.87;1.10;;;7.40;99.90;;;;;;5090879;28;20504;-75
2022/02/21 13:13:56;;;;;;;3.93;0.80;;;8.60;99.90;;;;;;5091074;28;20472;-75
2022/02/21 13:16:23;;;;;;;4.50;1.20;;;8.50;99.90;;;;;;5077637;28;20474;-75
2022/02/21 13:18:56;;;;;;;4.23;1.20;;;8.40;99.90;;;;;;5091709;28;20448;-74
2022/02/21 13:21:35;;;;;;;6.07;0.93;;;8.50;99.90;;;;;;5091054;28;20460;-75
2022/02/21 13:24:06;;;;;;;1.43;0.90;;;8.60;99.90;;;;;;5090907;28;20524;-75
2022/02/21 13:26:48;;;;;;;4.57;1.23;;;8.50;99.90;;;;;;5090964;28;20989;-75
2022/02/21 13:29:24;;;;;;;3.03;1.43;;;8.60;99.90;;;;;;5091491;28;20481;-74
2022/02/21 13:31:50;;;;;;;2.90;1.30;;;8.70;99.90;;;;;;5091392;28;20571;-75
2022/02/21 13:34:17;;;;;;;2.90;1.07;;;8.80;99.90;;;;;;5090570;28;20444;-73
2022/02/21 13:36:45;;;;;;;3.80;1.17;;;8.70;99.90;;;;;;5091083;28;20480;-75
2022/02/21 13:39:22;;;;;;;5.07;1.70;;;8.80;99.90;;;;;;5091196;28;20531;-75
2022/02/21 13:41:49;;;;;;;1.73;1.00;;;9.00;99.90;;;;;;5091246;28;20455;-74
2022/02/21 13:44:21;;;;;;;8.67;1.50;;;9.00;99.90;;;;;;5091041;28;20811;-73
2022/02/21 13:46:48;;;;;;;2.37;1.00;;;8.80;99.90;;;;;;5091087;28;20528;-73
2022/02/21 13:49:15;;;;;;;1.90;1.03;;;8.90;99.90;;;;;;5091859;28;20531;-73
2022/02/21 13:51:42;;;;;;;4.43;1.20;;;8.80;99.90;;;;;;5091146;28;20496;-75
2022/02/21 13:54:31;;;;;;;2.40;0.83;;;8.70;99.90;;;;;;5091208;28;20564;-76
2022/02/21 13:57:16;;;;;;;4.50;0.83;;;8.70;99.90;;;;;;5085383;28;20484;-74
2022/02/21 13:59:45;;;;;;;2.33;1.10;;;8.70;99.90;;;;;;5091850;28;20463;-74
2022/02/21 14:02:25;;;;;;;2.40;0.97;;;8.70;99.90;;;;;;5090656;28;20492;-73
2022/02/21 14:05:05;;;;;;;3.60;2.30;;;8.50;99.90;;;;;;5090972;28;20464;-76
2022/02/21 14:07:32;;;;;;;6.43;1.33;;;8.30;99.90;;;;;;5090675;28;20940;-75
2022/02/21 14:10:11;;;;;;;2.00;0.80;;;8.10;99.90;;;;;;5090848;28;20980;-74
2022/02/21 14:12:38;;;;;;;2.10;0.77;;;8.30;99.90;;;;;;5090526;28;20850;-74
2022/02/21 14:15:06;;;;;;;2.60;1.17;;;8.20;99.90;;;;;;5090791;28;21040;-74
2022/02/21 14:17:33;;;;;;;4.93;0.80;;;8.00;99.90;;;;;;5090139;28;20445;-75